Time;durP1;ratioP1;P1;durP2;ratioP2;P2;SDS_P1;SDS_P2;PMS_P1;PMS_P2;Temp;Humidity;BMP_temperature;BMP_pressure;BME280_temperature;BME280_humidity;BME280_pressure;Samples;Min_cycle;Max_cycle;Signal;HPM_P1;HPM_P2
2022/10/02 00:02:20;;;;;;;6.25;1.63;;;16.40;99.90;;;;;;5070367;28;20052;-53
2022/10/02 00:05:34;;;;;;;4.72;2.10;;;16.40;99.90;;;;;;5068530;28;20029;-53
2022/10/02 00:08:11;;;;;;;6.93;2.50;;;16.50;99.90;;;;;;5011421;28;20574;-54
2022/10/02 00:10:54;;;;;;;2.78;1.95;;;16.40;99.90;;;;;;5011689;28;20029;-53
2022/10/02 00:13:30;;;;;;;6.50;2.13;;;16.40;99.90;;;;;;5012371;28;20042;-53
2022/10/02 00:15:56;;;;;;;4.90;2.00;;;16.30;99.90;;;;;;5011762;28;20140;-53
2022/10/02 00:18:34;;;;;;;5.10;2.10;;;16.30;99.90;;;;;;5011141;28;20080;-53
2022/10/02 00:21:29;;;;;;;6.35;2.20;;;16.30;99.90;;;;;;5009812;28;20041;-54
2022/10/02 00:24:00;;;;;;;2.80;1.70;;;16.30;99.90;;;;;;5011380;28;20022;-53
2022/10/02 00:27:00;;;;;;;4.63;2.20;;;16.20;99.90;;;;;;5011463;28;20046;-53
2022/10/02 00:29:46;;;;;;;4.75;1.77;;;16.20;99.90;;;;;;4979188;28;20152;-55
2022/10/02 00:32:34;;;;;;;4.00;1.98;;;16.20;99.90;;;;;;4972725;28;20039;-54
2022/10/02 00:35:14;;;;;;;4.80;1.80;;;16.20;99.90;;;;;;4977727;28;20042;-55
2022/10/02 00:37:47;;;;;;;3.75;2.05;;;16.10;99.90;;;;;;4974185;28;20093;-53
2022/10/02 00:40:40;;;;;;;4.00;1.95;;;16.10;99.90;;;;;;4975842;28;20079;-53
2022/10/02 00:43:11;;;;;;;3.38;2.03;;;;;;;;;;4974645;28;20042;-53
2022/10/02 00:46:03;;;;;;;4.82;1.90;;;16.10;99.90;;;;;;5013619;28;20037;-54
2022/10/02 00:48:46;;;;;;;2.58;1.95;;;16.10;99.90;;;;;;5029261;28;20437;-53
2022/10/02 00:51:52;;;;;;;3.67;2.03;;;16.10;99.90;;;;;;5024574;28;20048;-53
2022/10/02 00:54:35;;;;;;;8.98;2.75;;;16.10;99.90;;;;;;5030052;28;20505;-53
2022/10/02 00:57:19;;;;;;;4.65;2.15;;;16.00;99.90;;;;;;5028500;28;20029;-53
2022/10/02 00:59:55;;;;;;;4.35;2.50;;;16.10;99.90;;;;;;5029569;28;20080;-56
2022/10/02 01:02:59;;;;;;;3.55;2.30;;;16.20;99.90;;;;;;5018010;28;20049;-53
2022/10/02 01:05:26;;;;;;;6.22;2.67;;;16.20;99.90;;;;;;5041655;28;20071;-53
2022/10/02 01:07:54;;;;;;;4.70;2.50;;;16.20;99.90;;;;;;5068795;28;20028;-54
2022/10/02 01:10:21;;;;;;;3.83;2.47;;;16.20;99.90;;;;;;5071719;28;20033;-53
2022/10/02 01:12:49;;;;;;;5.35;2.75;;;16.30;99.90;;;;;;5072755;28;20021;-55
2022/10/02 01:15:17;;;;;;;4.38;2.72;;;16.30;99.90;;;;;;5065159;28;20035;-54
2022/10/02 01:17:45;;;;;;;2.85;1.77;;;16.40;99.90;;;;;;5059437;28;20029;-53
2022/10/02 01:20:18;;;;;;;7.43;2.15;;;16.40;99.90;;;;;;5072040;28;20483;-53
2022/10/02 01:23:14;;;;;;;4.50;3.08;;;16.40;99.90;;;;;;5072508;28;20055;-53
2022/10/02 01:25:40;;;;;;;6.38;2.13;;;16.40;99.90;;;;;;5068637;28;20150;-54
2022/10/02 01:28:06;;;;;;;3.50;2.47;;;16.40;99.90;;;;;;5072035;28;20029;-53
2022/10/02 01:30:35;;;;;;;3.13;2.00;;;16.50;99.90;;;;;;5070348;28;20107;-53
2022/10/02 01:33:02;;;;;;;3.45;2.05;;;16.50;99.90;;;;;;5071686;28;20115;-54
2022/10/02 01:35:30;;;;;;;6.28;2.25;;;16.50;99.90;;;;;;5072291;28;20066;-53
2022/10/02 01:37:57;;;;;;;4.80;2.08;;;16.50;99.90;;;;;;5072207;28;20024;-54
2022/10/02 01:40:23;;;;;;;5.93;2.00;;;16.60;99.90;;;;;;5071616;28;20036;-53
2022/10/02 01:42:49;;;;;;;5.15;2.60;;;16.60;99.90;;;;;;5069959;28;20082;-53
2022/10/02 01:45:15;;;;;;;3.55;1.95;;;16.60;99.90;;;;;;5071987;28;20024;-53
2022/10/02 01:47:55;;;;;;;5.43;2.05;;;16.60;99.90;;;;;;5052683;28;20418;-53
2022/10/02 01:50:31;;;;;;;4.53;1.98;;;16.60;99.90;;;;;;5069281;28;20056;-52
2022/10/02 01:53:15;;;;;;;3.97;2.00;;;16.60;99.90;;;;;;5072003;28;20051;-53
2022/10/02 01:56:02;;;;;;;3.17;2.00;;;16.70;99.90;;;;;;5071782;28;20024;-53
2022/10/02 01:58:48;;;;;;;11.48;2.03;;;16.70;99.90;;;;;;5070525;28;20111;-53
2022/10/02 02:01:23;;;;;;;3.22;2.10;;;16.70;99.90;;;;;;5071760;28;20555;-54
2022/10/02 02:03:51;;;;;;;5.55;2.15;;;16.70;99.90;;;;;;5071618;28;20025;-52
2022/10/02 02:06:25;;;;;;;6.13;2.00;;;16.70;99.90;;;;;;5071991;28;20024;-54
2022/10/02 02:08:54;;;;;;;4.35;2.35;;;16.70;99.90;;;;;;5071823;28;20089;-53
2022/10/02 02:11:21;;;;;;;4.13;2.22;;;16.60;99.90;;;;;;5051018;28;20045;-53
2022/10/02 02:14:10;;;;;;;4.78;1.70;;;16.60;99.90;;;;;;5071758;28;20025;-53
2022/10/02 02:16:54;;;;;;;7.70;2.25;;;16.60;99.90;;;;;;5072438;28;20020;-54
2022/10/02 02:19:48;;;;;;;3.17;2.00;;;16.60;99.90;;;;;;5070193;28;20356;-53
2022/10/02 02:22:26;;;;;;;4.63;1.85;;;16.60;99.90;;;;;;5013553;28;20042;-54
2022/10/02 02:25:10;;;;;;;6.00;2.30;;;16.60;99.90;;;;;;5011238;28;20362;-53
2022/10/02 02:27:40;;;;;;;5.32;2.10;;;16.50;99.90;;;;;;5011586;28;20034;-54
2022/10/02 02:30:10;;;;;;;4.20;2.17;;;16.50;99.90;;;;;;5011610;28;20056;-54
2022/10/02 02:32:44;;;;;;;4.20;2.22;;;16.50;99.90;;;;;;5012820;28;20041;-53
2022/10/02 02:35:17;;;;;;;5.20;1.83;;;16.50;99.90;;;;;;5011390;28;20065;-53
2022/10/02 02:37:45;;;;;;;5.35;2.08;;;16.40;99.90;;;;;;5011399;28;20033;-53
2022/10/02 02:40:20;;;;;;;5.72;1.88;;;16.40;99.90;;;;;;4973838;28;20060;-53
2022/10/02 02:42:53;;;;;;;4.60;1.85;;;16.30;99.90;;;;;;5012766;28;20034;-54
2022/10/02 02:45:24;;;;;;;4.22;2.10;;;16.30;99.90;;;;;;5011079;28;20091;-53
2022/10/02 02:47:53;;;;;;;2.70;2.28;;;16.20;99.90;;;;;;5010830;28;20037;-54
2022/10/02 02:50:25;;;;;;;4.55;2.13;;;16.20;99.90;;;;;;5011015;28;20049;-53
2022/10/02 02:53:02;;;;;;;15.40;2.75;;;16.10;99.90;;;;;;4964172;28;20056;-53
2022/10/02 02:55:33;;;;;;;3.75;1.83;;;16.10;99.90;;;;;;5009215;28;20505;-53
2022/10/02 02:58:02;;;;;;;5.13;1.92;;;16.00;99.90;;;;;;4988462;28;20038;-53
2022/10/02 03:00:27;;;;;;;3.15;1.88;;;16.00;99.90;;;;;;5048238;28;20132;-53
2022/10/02 03:02:54;;;;;;;3.20;2.05;;;15.90;99.90;;;;;;5052695;28;20112;-53
2022/10/02 03:05:23;;;;;;;6.30;2.00;;;15.90;99.90;;;;;;5050379;28;20047;-53
2022/10/02 03:07:54;;;;;;;7.90;2.10;;;15.90;99.90;;;;;;5047829;28;20044;-54
2022/10/02 03:10:38;;;;;;;4.03;1.73;;;15.90;99.90;;;;;;5050242;28;20404;-53
2022/10/02 03:13:24;;;;;;;4.15;1.80;;;15.90;99.90;;;;;;5049508;28;20115;-53
2022/10/02 03:15:56;;;;;;;3.63;1.77;;;15.80;99.90;;;;;;5048166;28;20041;-53
2022/10/02 03:18:35;;;;;;;2.58;1.80;;;15.80;99.90;;;;;;5052087;28;20048;-55
2022/10/02 03:21:58;;;;;;;3.25;1.67;;;15.80;99.90;;;;;;5049824;28;20388;-53
2022/10/02 03:25:00;;;;;;;4.10;1.63;;;15.70;99.90;;;;;;4975383;28;20061;-53
2022/10/02 03:27:38;;;;;;;3.53;2.15;;;15.70;99.90;;;;;;4917958;29;20161;-53
2022/10/02 03:30:10;;;;;;;3.95;1.50;;;15.70;99.90;;;;;;4931403;29;20043;-53
2022/10/02 03:32:38;;;;;;;3.58;1.70;;;15.60;99.90;;;;;;4933134;29;20400;-53
2022/10/02 03:35:07;;;;;;;2.95;1.88;;;15.70;99.90;;;;;;4931678;29;20488;-53
2022/10/02 03:37:34;;;;;;;4.78;2.35;;;15.70;99.90;;;;;;4919873;29;20039;-54
2022/10/02 03:40:00;;;;;;;5.97;1.63;;;15.80;99.90;;;;;;4933206;29;20511;-53
2022/10/02 03:42:30;;;;;;;2.15;1.70;;;15.90;99.90;;;;;;4931282;29;20577;-53
2022/10/02 03:44:56;;;;;;;3.25;1.73;;;15.80;99.90;;;;;;4932142;29;20570;-53
2022/10/02 03:47:22;;;;;;;3.05;1.75;;;15.80;99.90;;;;;;4938621;29;20059;-53
2022/10/02 03:49:48;;;;;;;3.85;1.52;;;15.80;99.90;;;;;;4932659;29;20094;-53
2022/10/02 03:52:19;;;;;;;8.55;2.30;;;15.80;99.90;;;;;;4931919;29;20035;-53
2022/10/02 03:54:48;;;;;;;3.35;1.45;;;15.70;99.90;;;;;;4979147;28;20037;-55
2022/10/02 03:57:19;;;;;;;2.00;1.50;;;15.70;99.90;;;;;;5030643;28;20033;-53
2022/10/02 03:59:57;;;;;;;4.30;1.67;;;15.70;99.90;;;;;;5031128;28;20037;-53
2022/10/02 04:02:36;;;;;;;3.80;1.40;;;15.70;99.90;;;;;;5031465;28;20053;-54
2022/10/02 04:05:25;;;;;;;2.90;1.77;;;15.70;99.90;;;;;;5073470;28;20498;-54
2022/10/02 04:08:15;;;;;;;3.05;2.45;;;15.60;99.90;;;;;;5063305;28;20040;-53
2022/10/02 04:10:53;;;;;;;4.05;1.60;;;15.60;99.90;;;;;;5067927;28;20420;-53
2022/10/02 04:13:35;;;;;;;3.08;1.92;;;15.60;99.90;;;;;;5069108;28;20060;-54
2022/10/02 04:16:23;;;;;;;;;;;15.60;99.90;;;;;;5073684;28;20040;-53
2022/10/02 04:18:51;;;;;;;4.95;1.63;;;15.70;99.90;;;;;;5073899;28;19904;-53
2022/10/02 04:21:25;;;;;;;11.68;1.95;;;15.60;99.90;;;;;;5072923;28;20032;-53
2022/10/02 04:24:20;;;;;;;3.72;1.70;;;15.60;99.90;;;;;;5070547;28;20025;-54
2022/10/02 04:27:04;;;;;;;3.03;1.60;;;15.70;99.90;;;;;;5072544;28;20086;-53
2022/10/02 04:29:40;;;;;;;4.68;1.85;;;15.60;99.90;;;;;;5067493;28;20064;-54
2022/10/02 04:32:21;;;;;;;3.38;1.52;;;15.60;99.90;;;;;;5070432;28;20062;-53
2022/10/02 04:34:47;;;;;;;3.22;1.40;;;15.50;99.90;;;;;;5069310;28;20046;-53
2022/10/02 04:37:55;;;;;;;3.85;1.27;;;15.60;99.90;;;;;;5073023;28;20126;-53
2022/10/02 04:40:25;;;;;;;4.00;1.40;;;15.60;99.90;;;;;;5071731;28;20387;-53
2022/10/02 04:43:11;;;;;;;2.88;1.60;;;15.60;99.90;;;;;;5072574;28;20085;-53
2022/10/02 04:45:57;;;;;;;3.90;1.40;;;15.60;99.90;;;;;;5059690;28;20115;-54
2022/10/02 04:48:23;;;;;;;6.32;1.77;;;15.60;99.90;;;;;;5030630;28;20033;-53
2022/10/02 04:51:00;;;;;;;3.40;1.40;;;15.50;99.90;;;;;;5031076;28;20040;-53
2022/10/02 04:54:04;;;;;;;6.70;1.70;;;15.50;99.90;;;;;;5030539;28;20072;-53
2022/10/02 04:56:30;;;;;;;1.70;1.23;;;15.50;99.90;;;;;;4952448;29;20043;-53
2022/10/02 04:59:34;;;;;;;7.55;2.25;;;15.50;99.90;;;;;;4950386;29;20514;-53
2022/10/02 05:02:14;;;;;;;3.90;1.67;;;15.60;99.90;;;;;;4950594;29;20047;-53
2022/10/02 05:05:08;;;;;;;5.00;2.10;;;15.50;99.90;;;;;;4951402;29;20078;-53
2022/10/02 05:07:46;;;;;;;6.63;3.05;;;15.50;99.90;;;;;;4950775;29;20039;-53
2022/10/02 05:10:17;;;;;;;5.10;2.25;;;15.50;99.90;;;;;;4952334;29;20031;-53
2022/10/02 05:12:49;;;;;;;1.90;1.70;;;15.70;99.90;;;;;;4952004;29;20050;-53
2022/10/02 05:15:56;;;;;;;4.97;2.10;;;15.70;99.90;;;;;;4951565;29;20498;-53
2022/10/02 05:18:46;;;;;;;5.38;1.90;;;15.80;99.90;;;;;;4926049;29;20502;-54
2022/10/02 05:21:40;;;;;;;3.75;1.65;;;15.90;99.90;;;;;;4916310;29;20056;-53
2022/10/02 05:24:21;;;;;;;3.40;1.63;;;15.90;99.90;;;;;;4916501;29;20050;-53
2022/10/02 05:26:52;;;;;;;4.05;1.77;;;15.90;99.90;;;;;;4911063;28;20042;-54
2022/10/02 05:29:30;;;;;;;5.88;1.90;;;15.90;99.90;;;;;;4953265;28;20036;-56
2022/10/02 05:32:01;;;;;;;2.35;1.55;;;16.00;99.90;;;;;;4953520;28;20114;-55
2022/10/02 05:34:39;;;;;;;2.00;1.40;;;16.00;99.90;;;;;;4948690;28;20039;-53
2022/10/02 05:37:29;;;;;;;4.18;1.63;;;16.20;99.90;;;;;;4953451;28;20031;-54
2022/10/02 05:40:16;;;;;;;3.03;1.80;;;16.30;99.90;;;;;;4950870;28;20043;-53
2022/10/02 05:42:57;;;;;;;2.53;1.55;;;16.40;99.90;;;;;;4953006;28;20035;-53
2022/10/02 05:45:47;;;;;;;5.50;1.70;;;16.60;99.90;;;;;;4952558;28;20491;-54
2022/10/02 05:48:44;;;;;;;3.30;2.13;;;16.70;99.90;;;;;;4952948;28;20035;-54
2022/10/02 05:51:35;;;;;;;3.67;1.30;;;16.80;99.90;;;;;;4936420;28;20058;-53
2022/10/02 05:54:17;;;;;;;3.40;1.50;;;16.90;99.90;;;;;;4966343;28;20093;-53
2022/10/02 05:56:49;;;;;;;2.00;1.55;;;17.00;99.90;;;;;;4992194;28;20382;-53
2022/10/02 05:59:57;;;;;;;4.05;2.40;;;17.10;99.90;;;;;;4993573;28;20042;-53
2022/10/02 06:02:45;;;;;;;4.88;1.95;;;17.40;99.90;;;;;;5071383;28;20127;-54
2022/10/02 06:05:22;;;;;;;3.50;1.55;;;17.60;99.90;;;;;;5071049;28;20024;-53
2022/10/02 06:07:54;;;;;;;3.20;1.50;;;17.90;99.90;;;;;;5072579;28;20387;-54
2022/10/02 06:10:35;;;;;;;3.33;1.35;;;18.00;99.90;;;;;;5074153;28;20391;-54
2022/10/02 06:13:09;;;;;;;2.97;1.30;;;18.30;99.90;;;;;;5073187;28;20110;-54
2022/10/02 06:15:51;;;;;;;2.47;1.40;;;18.70;99.90;;;;;;5070187;28;20017;-53
2022/10/02 06:18:24;;;;;;;4.88;1.73;;;18.90;99.90;;;;;;5071872;28;20035;-53
2022/10/02 06:20:55;;;;;;;3.17;2.28;;;19.00;99.90;;;;;;5073452;28;20131;-54
2022/10/02 06:23:34;;;;;;;4.82;1.50;;;19.00;99.90;;;;;;5068009;28;20039;-54
2022/10/02 06:26:25;;;;;;;4.18;1.88;;;19.10;99.90;;;;;;5074810;28;20032;-56
2022/10/02 06:29:07;;;;;;;6.22;2.53;;;19.50;99.90;;;;;;5011893;28;20026;-55
2022/10/02 06:31:52;;;;;;;6.00;3.50;;;19.70;99.90;;;;;;4964051;28;20068;-54
2022/10/02 06:34:18;;;;;;;6.35;3.50;;;19.90;99.90;;;;;;5012126;28;20096;-53
2022/10/02 06:37:22;;;;;;;5.57;2.88;;;20.10;99.90;;;;;;4992259;28;20414;-54
2022/10/02 06:40:15;;;;;;;5.65;2.53;;;20.10;99.90;;;;;;4886420;29;20431;-54
2022/10/02 06:42:51;;;;;;;3.63;2.15;;;21.00;99.90;;;;;;4917070;29;20054;-53
2022/10/02 06:45:34;;;;;;;3.58;1.92;;;21.40;99.90;;;;;;4912977;29;20051;-54
2022/10/02 06:48:04;;;;;;;4.45;1.88;;;21.80;99.90;;;;;;4917772;29;20136;-55
2022/10/02 06:50:48;;;;;;;4.32;1.92;;;;;;;;;;4916683;29;20464;-54
2022/10/02 06:53:28;;;;;;;3.80;1.70;;;22.50;99.90;;;;;;4916459;29;20071;-54
2022/10/02 06:56:00;;;;;;;3.80;1.60;;;;;;;;;;4916490;29;20040;-54
2022/10/02 06:58:45;;;;;;;4.15;1.40;;;;;;;;;;4916162;29;20036;-54
2022/10/02 07:01:11;;;;;;;1.67;1.13;;;;;;;;;;4915113;29;20178;-54
2022/10/02 07:03:57;;;;;;;3.70;1.90;;;;;;;;;;4912064;29;20618;-54
2022/10/02 07:06:41;;;;;;;2.33;1.65;;;;;;;;;;4887533;29;20052;-54
2022/10/02 07:09:26;;;;;;;9.65;3.28;;;;;;;;;;4895204;29;20123;-55
2022/10/02 07:12:05;;;;;;;4.22;1.40;;;;;;;;;;4893642;29;20049;-54
2022/10/02 07:14:58;;;;;;;3.28;1.75;;;24.80;99.90;;;;;;4918381;29;20051;-55
2022/10/02 07:17:26;;;;;;;2.58;1.63;;;25.10;99.90;;;;;;5011443;28;20129;-54
2022/10/02 07:19:58;;;;;;;2.00;1.40;;;;;;;;;;5024308;28;20048;-54
2022/10/02 07:22:30;;;;;;;3.38;1.60;;;;;;;;;;5031675;28;20030;-53
2022/10/02 07:25:04;;;;;;;;;;;25.60;99.90;;;;;;5029541;28;20042;-53
2022/10/02 07:27:42;;;;;;;1.63;1.30;;;;;;;;;;5031896;28;19940;-50
2022/10/02 07:30:11;;;;;;;2.55;1.30;;;;;;;;;;5031962;28;20110;-49
2022/10/02 07:32:51;;;;;;;4.95;1.75;;;;;;;;;;5028573;28;20448;-48
2022/10/02 07:35:32;;;;;;;2.65;1.42;;;25.10;99.90;;;;;;5031323;28;20386;-48
2022/10/02 07:38:04;;;;;;;2.42;1.40;;;;;;;;;;5029277;28;20088;-49
2022/10/02 07:40:41;;;;;;;3.08;1.42;;;26.20;99.90;;;;;;5031030;28;20136;-49
2022/10/02 07:43:33;;;;;;;2.40;1.25;;;;;;;;;;5046189;28;20517;-49
2022/10/02 07:46:08;;;;;;;3.58;1.25;;;;;;;;;;5000819;28;20036;-49
2022/10/02 07:48:48;;;;;;;2.95;1.50;;;26.50;99.90;;;;;;5073990;28;20040;-51
2022/10/02 07:54:17;;;;;;;4.00;1.67;;;;;;;;;;5072453;28;20024;-49
2022/10/02 07:56:44;;;;;;;3.25;1.50;;;;;;;;;;5073438;28;20111;-49
2022/10/02 07:59:11;;;;;;;4.45;1.70;;;;;;;;;;5072841;28;20055;-50
2022/10/02 08:01:40;;;;;;;2.47;1.40;;;28.70;99.90;;;;;;5070462;28;20462;-49
2022/10/02 08:04:11;;;;;;;3.90;1.23;;;;;;;;;;5073003;28;20461;-49
2022/10/02 08:06:38;;;;;;;3.75;1.77;;;;;;;;;;5073572;28;20081;-49
2022/10/02 08:09:11;;;;;;;1.83;1.65;;;;;;;;;;5072753;28;20040;-49
2022/10/02 08:11:47;;;;;;;4.03;1.55;;;;;;;;;;5066998;28;20037;-48
2022/10/02 08:14:19;;;;;;;1.95;1.50;;;;;;;;;;5072836;28;20122;-49
2022/10/02 08:16:48;;;;;;;2.88;1.80;;;30.00;99.90;;;;;;5070828;28;20048;-49
2022/10/02 08:19:26;;;;;;;4.13;1.63;;;;;;;;;;5072109;28;20028;-49
2022/10/02 08:21:59;;;;;;;2.42;1.67;;;30.00;99.90;;;;;;5072982;28;20502;-50
2022/10/02 08:24:35;;;;;;;2.10;1.50;;;;;;;;;;5029024;28;20408;-49
2022/10/02 08:27:05;;;;;;;4.05;1.58;;;;;;;;;;5030168;28;20017;-48
2022/10/02 08:29:46;;;;;;;3.83;1.42;;;28.60;99.90;;;;;;5024333;28;20041;-49
2022/10/02 08:32:12;;;;;;;4.15;1.60;;;;;;;;;;5030671;28;20092;-49
2022/10/02 08:34:39;;;;;;;5.72;1.75;;;;;;;;;;5031477;28;20046;-49
2022/10/02 08:37:08;;;;;;;4.07;2.00;;;30.90;95.10;;;;;;4997182;28;20049;-49
2022/10/02 08:40:03;;;;;;;2.85;1.58;;;30.70;95.40;;;;;;5030081;28;20076;-49
2022/10/02 08:42:32;;;;;;;7.20;2.63;;;;;;;;;;4904661;29;20032;-49
2022/10/02 08:45:22;;;;;;;3.65;1.85;;;30.90;93.40;;;;;;4911943;29;20547;-49
2022/10/02 08:48:07;;;;;;;3.88;1.58;;;;;;;;;;4916447;29;20507;-49
2022/10/02 08:50:44;;;;;;;2.72;1.42;;;31.50;92.70;;;;;;4880433;29;20591;-49
2022/10/02 08:53:46;;;;;;;14.32;1.85;;;31.30;92.90;;;;;;4910141;29;20032;-49
2022/10/02 08:56:26;;;;;;;1.75;1.27;;;31.70;93.10;;;;;;4958606;28;20135;-50
2022/10/02 08:59:42;;;;;;;4.03;1.70;;;29.80;93.10;;;;;;4969267;28;20042;-49
2022/10/02 09:02:31;;;;;;;1.38;1.20;;;;;;;;;;4914405;29;20032;-49
2022/10/02 09:05:18;;;;;;;3.72;1.55;;;;;;;;;;4921043;29;20039;-50
2022/10/02 09:07:55;;;;;;;2.80;1.63;;;30.90;99.20;;;;;;4915865;29;20040;-49
2022/10/02 09:10:36;;;;;;;2.20;1.40;;;30.70;92.80;;;;;;4919180;29;20032;-49
2022/10/02 09:13:14;;;;;;;2.40;1.27;;;;;;;;;;4898547;29;20036;-49
2022/10/02 09:15:43;;;;;;;2.55;1.52;;;;;;;;;;4917529;29;20083;-49
2022/10/02 09:18:17;;;;;;;7.78;2.10;;;31.20;92.40;;;;;;4917611;29;20160;-50
2022/10/02 09:20:52;;;;;;;2.45;1.17;;;;;;;;;;5005544;28;20066;-49
2022/10/02 09:23:42;;;;;;;2.63;1.50;;;31.50;96.20;;;;;;5011246;28;20100;-50
2022/10/02 09:26:08;;;;;;;1.98;1.38;;;;;;;;;;5007764;28;20056;-50
2022/10/02 09:28:34;;;;;;;2.45;1.20;;;;;;;;;;5008090;28;20087;-48
2022/10/02 09:31:03;;;;;;;2.47;1.20;;;31.20;89.80;;;;;;4991277;28;20049;-50
2022/10/02 09:34:10;;;;;;;1.98;1.40;;;30.80;96.30;;;;;;5008367;28;20037;-49
2022/10/02 09:37:15;;;;;;;1.88;1.30;;;30.80;96.20;;;;;;5004692;28;20084;-49
2022/10/02 09:39:59;;;;;;;1.77;1.40;;;32.10;91.30;;;;;;5067724;28;20035;-49
2022/10/02 09:42:44;;;;;;;2.78;1.10;;;31.70;90.10;;;;;;5075409;28;20029;-51
2022/10/02 09:45:17;;;;;;;1.42;1.10;;;;;;;;;;5069427;28;20036;-50
2022/10/02 09:48:03;;;;;;;1.55;1.10;;;32.80;99.90;;;;;;5070924;28;20541;-49
2022/10/02 09:50:45;;;;;;;1.77;1.30;;;;;;;;;;5067400;28;20041;-50
2022/10/02 09:53:14;;;;;;;3.08;1.80;;;;;;;;;;5071677;28;20403;-50
2022/10/02 09:56:21;;;;;;;3.53;1.80;;;31.90;89.90;;;;;;5060340;28;20512;-50
2022/10/02 09:59:28;;;;;;;2.17;1.65;;;31.30;89.70;;;;;;5050172;28;20480;-49
2022/10/02 10:01:59;;;;;;;1.98;1.50;;;31.80;90.10;;;;;;5007007;28;20097;-50
2022/10/02 10:04:49;;;;;;;3.40;1.20;;;31.50;89.50;;;;;;5002641;28;20561;-49
2022/10/02 10:07:42;;;;;;;2.83;1.00;;;31.90;88.20;;;;;;5000211;28;20042;-50
2022/10/02 10:10:24;;;;;;;3.75;1.70;;;31.20;86.50;;;;;;4973014;28;20037;-49
2022/10/02 10:13:21;;;;;;;3.10;2.38;;;32.00;89.20;;;;;;5001745;28;20053;-49
2022/10/02 10:16:11;;;;;;;4.82;3.45;;;32.00;92.00;;;;;;5004550;28;20038;-49
2022/10/02 10:19:01;;;;;;;2.42;1.60;;;31.90;86.80;;;;;;5003033;28;20129;-51
2022/10/02 10:22:04;;;;;;;8.13;6.27;;;31.70;86.50;;;;;;5006945;28;20121;-51
2022/10/02 10:24:43;;;;;;;3.20;2.42;;;31.90;87.20;;;;;;4989782;28;20552;-55
2022/10/02 10:27:12;;;;;;;2.75;1.10;;;;;;;;;;5005380;28;20414;-62
2022/10/02 10:30:03;;;;;;;1.30;1.20;;;32.20;86.40;;;;;;5004422;28;20034;-57
2022/10/02 10:33:07;;;;;;;23.05;20.60;;;32.40;87.50;;;;;;5003468;28;20045;-55
2022/10/02 10:35:46;;;;;;;6.25;4.68;;;;;;;;;;5029663;28;20033;-55
2022/10/02 10:38:33;;;;;;;4.07;2.95;;;;;;;;;;5070158;28;20032;-54
2022/10/02 10:41:11;;;;;;;6.25;5.13;;;;;;;;;;5074768;28;20036;-53
2022/10/02 10:44:02;;;;;;;8.90;5.05;;;;;;;;;;5073342;28;20024;-54
2022/10/02 10:47:05;;;;;;;5.85;2.83;;;29.80;86.90;;;;;;5064527;28;20543;-54
2022/10/02 10:49:53;;;;;;;3.83;1.15;;;;;;;;;;5074741;28;20522;-53
2022/10/02 10:52:38;;;;;;;4.88;3.67;;;;;;;;;;5073999;28;20040;-55
2022/10/02 10:55:04;;;;;;;4.13;1.35;;;;;;;;;;5074346;28;20029;-52
2022/10/02 10:57:34;;;;;;;2.38;0.98;;;;;;;;;;5055505;28;20508;-56
2022/10/02 11:00:09;;;;;;;6.13;4.32;;;;;;;;;;5075434;28;20479;-53
2022/10/02 11:02:35;;;;;;;6.00;4.30;;;;;;;;;;5074260;28;20123;-55
2022/10/02 11:05:14;;;;;;;5.05;3.17;;;;;;;;;;5074759;28;20048;-53
2022/10/02 11:07:59;;;;;;;2.88;2.30;;;;;;;;;;5074597;28;20035;-52
2022/10/02 11:10:37;;;;;;;7.22;5.53;;;;;;;;;;5072432;28;20028;-56
2022/10/02 11:13:09;;;;;;;3.58;3.10;;;;;;;;;;5071739;28;20032;-56
2022/10/02 11:16:06;;;;;;;1.75;1.33;;;;;;;;;;5073624;28;20039;-57
2022/10/02 11:18:44;;;;;;;3.25;2.47;;;;;;;;;;5010362;28;20044;-55
2022/10/02 11:21:14;;;;;;;8.88;5.20;;;;;;;;;;5006440;28;20113;-53
2022/10/02 11:23:46;;;;;;;4.90;2.70;;;;;;;;;;5008265;28;20096;-54
2022/10/02 11:26:20;;;;;;;1.40;1.27;;;;;;;;;;5005783;28;20575;-55
2022/10/02 11:28:57;;;;;;;1.90;1.70;;;;;;;;;;5005474;28;20038;-57
2022/10/02 11:31:45;;;;;;;5.07;2.30;;;;;;;;;;5004241;28;20037;-56
2022/10/02 11:34:32;;;;;;;1.13;0.93;;;;;;;;;;5005371;28;20421;-55
2022/10/02 11:37:11;;;;;;;2.78;1.40;;;;;;;;;;5006945;28;20109;-57
2022/10/02 11:39:55;;;;;;;1.45;0.90;;;;;;;;;;4994636;28;20027;-57
2022/10/02 11:42:39;;;;;;;2.20;0.85;;;;;;;;;;5008168;28;20444;-57
2022/10/02 11:45:06;;;;;;;1.42;0.90;;;;;;;;;;5003964;28;20026;-55
2022/10/02 11:47:59;;;;;;;2.97;1.65;;;31.90;84.00;;;;;;5005609;28;20637;-55
2022/10/02 11:50:44;;;;;;;1.90;1.05;;;;;;;;;;5010017;28;20041;-55
2022/10/02 11:53:16;;;;;;;0.90;0.63;;;;;;;;;;5008641;28;20030;-55
2022/10/02 11:56:11;;;;;;;3.53;1.20;;;;;;;;;;5057586;28;20109;-58
2022/10/02 11:58:46;;;;;;;4.63;1.80;;;;;;;;;;5066500;28;20024;-54
2022/10/02 12:01:30;;;;;;;1.70;1.10;;;;;;;;;;5064625;28;20154;-58
2022/10/02 12:04:02;;;;;;;3.50;0.77;;;;;;;;;;5049273;28;20043;-58
2022/10/02 12:06:32;;;;;;;2.65;1.48;;;;;;;;;;5071864;28;20029;-59
2022/10/02 12:09:07;;;;;;;2.33;1.20;;;30.00;81.70;;;;;;5071713;28;20103;-56
2022/10/02 12:11:51;;;;;;;4.07;1.27;;;30.50;82.00;;;;;;5070347;28;20016;-56
2022/10/02 12:15:01;;;;;;;2.42;1.52;;;30.30;81.80;;;;;;5068622;28;20020;-56
2022/10/02 12:18:02;;;;;;;2.75;0.70;;;30.90;82.70;;;;;;5069357;28;20036;-56
2022/10/02 12:26:57;;;;;;;1.80;1.10;;;30.40;80.70;;;;;;5029925;28;20496;-55
2022/10/02 12:29:39;;;;;;;2.10;0.90;;;;;;;;;;5030458;28;20026;-55
2022/10/02 12:32:07;;;;;;;2.10;0.82;;;;;;;;;;5029341;28;20029;-54
2022/10/02 12:34:56;;;;;;;2.20;1.10;;;31.70;99.90;;;;;;5029174;28;20052;-54
2022/10/02 12:37:41;;;;;;;2.20;0.70;;;;;;;;;;5029156;28;20120;-53
2022/10/02 12:40:13;;;;;;;4.47;1.00;;;;;;;;;;5029617;28;20033;-54
2022/10/02 12:42:44;;;;;;;1.27;0.80;;;;;;;;;;5029275;28;20025;-50
2022/10/02 12:45:30;;;;;;;1.85;0.93;;;32.60;99.00;;;;;;5026915;28;20040;-50
2022/10/02 12:48:10;;;;;;;1.77;0.98;;;;;;;;;;5025157;28;20094;-55
2022/10/02 12:50:54;;;;;;;1.77;0.88;;;;;;;;;;5008942;28;20037;-55
2022/10/02 12:53:40;;;;;;;1.75;0.85;;;;;;;;;;5029493;28;20132;-56
2022/10/02 12:56:25;;;;;;;2.08;0.80;;;;;;;;;;5049415;28;20032;-55
2022/10/02 12:59:08;;;;;;;1.27;0.90;;;33.10;79.60;;;;;;5070632;28;20067;-54
2022/10/02 13:02:05;;;;;;;2.05;0.88;;;;;;;;;;5064114;28;20056;-56
2022/10/02 13:05:03;;;;;;;0.85;0.60;;;33.00;95.30;;;;;;5069783;28;20070;-55
2022/10/02 13:07:44;;;;;;;5.25;0.90;;;32.60;84.10;;;;;;4999685;28;20034;-56
2022/10/02 13:10:25;;;;;;;1.70;1.20;;;33.00;81.20;;;;;;4996977;28;20026;-54
2022/10/02 13:13:06;;;;;;;1.08;0.68;;;32.40;80.50;;;;;;4981619;28;20502;-54
2022/10/02 13:15:42;;;;;;;4.40;1.65;;;32.40;81.20;;;;;;4981812;28;20505;-54
2022/10/02 13:18:42;;;;;;;1.38;0.95;;;32.30;79.90;;;;;;4981969;28;20038;-56
2022/10/02 13:21:12;;;;;;;1.50;0.80;;;;;;;;;;4986566;28;20081;-57
2022/10/02 13:23:49;;;;;;;2.83;1.15;;;;;;;;;;4983416;28;20082;-57
2022/10/02 13:26:41;;;;;;;1.55;0.90;;;31.50;99.90;;;;;;4987887;28;20513;-57
2022/10/02 13:29:16;;;;;;;;;;;31.10;94.90;;;;;;4982224;28;20623;-56
2022/10/02 13:31:48;;;;;;;0.75;0.70;;;;;;;;;;4983143;28;19973;-55
2022/10/02 13:34:15;;;;;;;1.13;0.73;;;;;;;;;;4969126;28;20054;-54
2022/10/02 13:37:00;;;;;;;3.63;0.85;;;;;;;;;;4986695;28;20019;-56
2022/10/02 13:39:35;;;;;;;2.67;0.85;;;;;;;;;;4987669;28;20030;-54
2022/10/02 13:42:07;;;;;;;1.48;1.00;;;;;;;;;;4987220;28;20042;-55
2022/10/02 13:44:44;;;;;;;1.75;0.80;;;;;;;;;;5041628;28;20099;-57
2022/10/02 13:47:16;;;;;;;1.55;0.75;;;;;;;;;;5065879;28;20058;-55
2022/10/02 13:49:52;;;;;;;1.88;1.13;;;30.70;99.90;;;;;;5069004;28;20379;-56
2022/10/02 13:52:37;;;;;;;0.90;0.80;;;;;;;;;;5064649;28;20021;-55
2022/10/02 13:55:20;;;;;;;3.78;1.00;;;;;;;;;;5069075;28;20391;-55
2022/10/02 13:58:05;;;;;;;1.55;0.95;;;;;;;;;;5068564;28;20120;-56
2022/10/02 14:00:37;;;;;;;2.35;0.70;;;;;;;;;;5061958;28;20128;-56
2022/10/02 14:03:17;;;;;;;3.70;1.30;;;31.40;79.60;;;;;;5068092;28;20043;-55
2022/10/02 14:05:50;;;;;;;1.27;0.90;;;31.40;79.50;;;;;;5069086;28;20024;-55
2022/10/02 14:08:25;;;;;;;2.78;1.00;;;31.10;79.80;;;;;;5068700;28;20468;-55
2022/10/02 14:11:19;;;;;;;1.77;0.90;;;31.00;79.10;;;;;;5070061;28;20028;-55
2022/10/02 14:14:20;;;;;;;1.20;0.90;;;31.30;80.20;;;;;;5071917;28;20028;-56
2022/10/02 14:17:17;;;;;;;4.05;1.02;;;31.00;80.60;;;;;;5073071;28;20848;-56
2022/10/02 14:19:51;;;;;;;2.08;0.90;;;31.00;81.10;;;;;;5071109;28;20028;-55
2022/10/02 14:22:45;;;;;;;3.85;1.48;;;31.00;80.90;;;;;;5068681;28;20109;-55
2022/10/02 14:25:21;;;;;;;2.03;1.10;;;31.10;79.90;;;;;;5072675;28;20036;-55
2022/10/02 14:28:37;;;;;;;0.77;0.50;;;31.20;79.60;;;;;;5074871;28;20025;-55
2022/10/02 14:31:08;;;;;;;1.75;0.73;;;31.00;79.20;;;;;;5020832;28;20038;-55
2022/10/02 14:33:42;;;;;;;1.65;0.88;;;30.80;80.90;;;;;;5028180;28;20413;-55
2022/10/02 14:36:08;;;;;;;1.60;0.77;;;30.90;80.80;;;;;;5027710;28;20091;-55
2022/10/02 14:38:48;;;;;;;1.90;0.90;;;30.80;81.20;;;;;;5023474;28;20124;-56